Gopher, South Dakota
Current Conditions -  °F | °C
As of 10:07 PM on Wednesday 17 Dec 2014 (Local Time) from KMBG Reporting Station
Overcast Overcast  
Wind Chill:   Ceiling: 1400
Heat Index: 18°   Visibility: 10mi
Dew Point: 12°   Wind: 12mph
Humidity: 78%   Direction: 160°SSE
Pressure: 30.15"   Gusts: NA
Location:  45.5528°N, 100.336°W
Report Text: KMBG 180407Z AUTO 16010KT 10SM OVC014 M08/M11 A3015 RMK AO2 T10781111
Loading
Personal Weather Stations






























Interactive Weather Map New forecast layout! Learn more

10-Day Weather Forecast

Advertisements
Track Severe Weather on mobile